Terminal Aerodrome Forecast
Issued by NWS

Home | Current Version | Previous Version | Text Only | Print | Product List | Glossary On
Versions: 1 2 3 4 5 6 7 8 9 10 11 12 13 14 15 16 17 18 19 20 21 22 23 24 25 26
000
FTAK31 PAFC 182336
TAFADL
TAF
PADL 182336Z 1900/1924 VRB04KT P6SM -SHSN SCT015 BKN025
     FM190600 28006KT P6SM VCSH BKN035
     FM191800 24004KT P6SM -SHSN OVC015
     FM192200 20007KT P6SM BKN050=

USA.gov is the U.S. government's official web portal to all federal, state and local government web resources and services.